Milesville, South Dakota
Current Conditions -  °F | °C
As of 12:55 AM on Sunday 26 Oct 2014 (Local Time) from KPHP Reporting Station
Clear Clear  
Wind Chill: 43°   Ceiling: Unl
Heat Index: 47°   Visibility: 10mi
Dew Point: 34°   Wind: 9mph
Humidity: 61%   Direction: 90°E
Pressure: 29.82"   Gusts: NA
Location:  44.46°N, 101.68°W
Report Text: KPHP 260655Z AUTO 09008KT 10SM CLR 08/01 A2982 RMK AO2 SLP091 T00830011 402061006
Loading
Personal Weather Stations






























Interactive Weather Map
Tropical Storm Tracking
New forecast layout! Learn more

10-Day Weather Forecast

Advertisements
Track Severe Weather on mobile